Time;durP1;ratioP1;P1;durP2;ratioP2;P2;SDS_P1;SDS_P2;PMS_P1;PMS_P2;Temp;Humidity;BMP_temperature;BMP_pressure;BME280_temperature;BME280_humidity;BME280_pressure;Samples;Min_cycle;Max_cycle;Signal;HPM_P1;HPM_P2
2022/10/02 00:00:05;;;;;;;2.12;1.15;;;;;;;10.55;95.12;96072.59;1744603;81;21051;-83
2022/10/02 00:02:38;;;;;;;3.20;1.55;;;;;;;10.53;94.93;96077.48;1767269;80;21038;-83
2022/10/02 00:05:35;;;;;;;4.00;2.02;;;;;;;10.53;94.91;96070.98;1766788;80;21225;-84
2022/10/02 00:08:06;;;;;;;3.90;1.52;;;;;;;10.55;94.86;96067.39;1764277;80;21353;-83
2022/10/02 00:11:06;;;;;;;2.50;1.70;;;;;;;10.55;94.60;96067.39;1743673;80;21032;-83
2022/10/02 00:13:36;;;;;;;2.12;1.85;;;;;;;10.54;94.70;96061.40;1766907;81;21082;-83
2022/10/02 00:16:03;;;;;;;1.82;1.62;;;;;;;10.56;94.70;96058.61;1768174;80;21006;-83
2022/10/02 00:18:32;;;;;;;3.22;1.60;;;;;;;10.60;94.87;96070.25;1720929;82;20939;-83
2022/10/02 00:21:12;;;;;;;2.22;1.82;;;;;;;10.62;94.74;96070.86;1757588;81;20948;-83
2022/10/02 00:23:46;;;;;;;1.82;1.55;;;;;;;10.64;94.78;96070.98;1769539;80;20974;-83
2022/10/02 00:26:24;;;;;;;2.42;1.55;;;;;;;10.69;94.68;96076.40;1756239;80;20977;-82
2022/10/02 00:29:10;;;;;;;2.47;1.55;;;;;;;10.72;94.75;96073.91;1755272;80;21000;-83
2022/10/02 00:32:27;;;;;;;1.62;1.40;;;;;;;10.74;94.48;96082.34;1741551;80;21026;-83
2022/10/02 00:35:21;;;;;;;2.35;1.50;;;;;;;10.72;94.27;96082.52;1740384;81;21027;-83
2022/10/02 00:38:01;;;;;;;2.20;1.52;;;;;;;10.75;94.57;96083.95;1745430;80;21329;-83
2022/10/02 00:41:04;;;;;;;2.98;2.08;;;;;;;10.75;94.33;96091.25;1736601;81;20951;-83
2022/10/02 00:43:34;;;;;;;;;;;;;;;10.76;94.36;96090.25;1750050;80;21326;-84
2022/10/02 00:46:05;;;;;;;3.02;1.72;;;;;;;10.80;94.32;96088.08;1780458;80;20102;-84
2022/10/02 00:49:00;;;;;;;2.35;1.80;;;;;;;10.81;94.22;96087.08;1770821;80;20987;-84
2022/10/02 00:51:34;;;;;;;3.33;1.45;;;;;;;10.83;94.00;96091.09;1758740;80;21043;-83
2022/10/02 00:54:20;;;;;;;2.60;1.85;;;;;;;10.85;94.25;96096.59;1716421;82;21015;-83
2022/10/02 00:57:10;;;;;;;2.55;1.62;;;;;;;10.84;94.24;96102.29;1737032;81;20996;-83
2022/10/02 01:00:00;;;;;;;2.62;1.70;;;;;;;10.85;93.84;96092.70;1737589;81;21407;-83
2022/10/02 01:02:36;;;;;;;3.52;1.98;;;;;;;10.86;93.66;96096.90;1727684;81;21423;-83
2022/10/02 01:05:07;;;;;;;3.90;1.72;;;;;;;10.88;93.83;96101.41;1745391;81;20995;-83
2022/10/02 01:07:38;;;;;;;3.30;1.60;;;;;;;10.88;93.68;96107.41;1726259;81;20988;-83
2022/10/02 01:10:05;;;;;;;2.52;1.82;;;;;;;10.89;93.69;96109.52;1744983;81;21012;-83
2022/10/02 01:12:31;;;;;;;4.25;1.65;;;;;;;10.91;94.04;96128.34;1696804;82;21323;-83
2022/10/02 01:14:57;;;;;;;3.27;2.05;;;;;;;10.92;94.22;96135.95;1716271;82;20964;-83
2022/10/02 01:17:26;;;;;;;2.85;1.80;;;;;;;10.93;94.58;96132.86;1737276;81;21004;-83
2022/10/02 01:19:52;;;;;;;4.30;1.98;;;;;;;10.93;95.47;96135.45;1745734;82;21027;-83
2022/10/02 01:22:38;;;;;;;2.52;1.85;;;;;;;10.90;95.77;96134.51;1728863;82;21019;-83
2022/10/02 01:25:04;;;;;;;2.42;1.60;;;;;;;10.87;96.18;96132.30;1742397;81;20997;-83
2022/10/02 01:27:30;;;;;;;3.10;1.98;;;;;;;10.83;96.76;96126.17;1726069;82;20992;-84
2022/10/02 01:30:05;;;;;;;3.10;1.90;;;;;;;10.79;96.67;96131.95;1724186;82;20956;-83
2022/10/02 01:32:30;;;;;;;3.72;2.25;;;;;;;10.82;97.15;96135.47;1745623;81;21358;-82
2022/10/02 01:34:57;;;;;;;3.10;1.90;;;;;;;10.81;97.04;96137.27;1721227;82;20999;-81
2022/10/02 01:37:26;;;;;;;2.35;2.10;;;;;;;10.81;97.22;96152.05;1716262;81;21027;-81
2022/10/02 01:39:52;;;;;;;2.10;1.90;;;;;;;10.81;97.73;96151.56;1741697;81;21430;-82
2022/10/02 01:42:18;;;;;;;3.15;2.42;;;;;;;10.79;97.66;96150.14;1733015;81;21036;-82
2022/10/02 01:44:45;;;;;;;3.92;2.00;;;;;;;10.76;97.76;96153.13;1694785;82;20991;-82
2022/10/02 01:47:40;;;;;;;3.83;2.42;;;;;;;10.75;97.87;96145.02;1723204;81;20939;-82
2022/10/02 01:50:18;;;;;;;3.47;1.87;;;;;;;10.73;98.09;96147.78;1745682;81;20983;-84
2022/10/02 01:53:13;;;;;;;3.17;2.00;;;;;;;10.70;98.36;96152.56;1764195;80;21054;-84
2022/10/02 01:56:15;;;;;;;3.15;2.47;;;;;;;10.67;98.44;96157.64;1754094;80;21370;-83
2022/10/02 01:59:21;;;;;;;3.27;2.37;;;;;;;10.65;98.61;96157.02;1757951;80;20979;-83
2022/10/02 02:02:09;;;;;;;2.58;2.20;;;;;;;10.70;98.98;96164.25;1656276;86;21010;-84
2022/10/02 02:05:16;;;;;;;4.37;2.10;;;;;;;10.67;98.80;96160.73;1646809;85;21155;-84
2022/10/02 02:08:10;;;;;;;3.25;2.35;;;;;;;10.66;98.90;96164.33;1760372;79;20967;-84
2022/10/02 02:10:56;;;;;;;2.92;1.90;;;;;;;10.64;99.03;96172.31;1774096;80;21035;-83
2022/10/02 02:13:33;;;;;;;3.75;2.20;;;;;;;10.63;99.20;96173.80;1753779;79;20971;-84
2022/10/02 02:16:32;;;;;;;3.42;1.92;;;;;;;10.63;99.39;96174.60;1770639;79;21006;-83
2022/10/02 02:19:16;;;;;;;1.85;1.57;;;;;;;10.65;99.54;96182.20;1774145;80;21003;-84
2022/10/02 02:21:49;;;;;;;3.15;2.25;;;;;;;10.64;99.63;96180.11;1755050;79;21059;-83
2022/10/02 02:24:20;;;;;;;2.17;1.60;;;;;;;10.65;99.63;96183.01;1774371;79;20998;-83
2022/10/02 02:26:47;;;;;;;2.20;2.00;;;;;;;10.63;99.39;96190.19;1772841;79;20999;-83
2022/10/02 02:29:13;;;;;;;4.80;2.10;;;;;;;10.64;99.54;96187.09;1775445;79;20963;-84
2022/10/02 02:31:43;;;;;;;2.58;1.67;;;;;;;10.59;99.53;96191.56;1775940;80;21051;-83
2022/10/02 02:34:11;;;;;;;3.10;1.90;;;;;;;10.56;100.00;96186.71;1775988;80;20969;-83
2022/10/02 02:36:40;;;;;;;2.22;1.90;;;;;;;10.55;99.79;96201.19;1776370;79;20957;-83
2022/10/02 02:39:09;;;;;;;2.25;1.70;;;;;;;10.55;99.94;96207.19;1758752;80;21325;-83
2022/10/02 02:41:43;;;;;;;2.20;2.00;;;;;;;10.57;99.99;96206.50;1773756;79;21031;-83
2022/10/02 02:44:23;;;;;;;2.58;2.25;;;;;;;10.59;100.00;96220.14;1789965;79;20973;-84
2022/10/02 02:47:04;;;;;;;3.33;2.00;;;;;;;10.58;100.00;96228.13;1753733;79;21022;-83
2022/10/02 02:49:47;;;;;;;2.83;2.08;;;;;;;10.56;99.98;96223.08;1757875;80;20940;-83
2022/10/02 02:52:21;;;;;;;3.25;2.33;;;;;;;10.57;99.81;96228.59;1745654;80;21008;-83
2022/10/02 02:54:58;;;;;;;2.25;2.05;;;;;;;10.59;99.82;96224.04;1753641;80;21016;-83
2022/10/02 02:57:32;;;;;;;2.98;2.30;;;;;;;10.60;99.91;96223.55;1760323;80;20980;-84
2022/10/02 02:59:58;;;;;;;4.40;2.30;;;;;;;10.61;99.79;96229.05;1752405;80;20941;-83
2022/10/02 03:02:24;;;;;;;2.50;1.90;;;;;;;10.61;99.59;96225.15;1766259;80;21024;-83
2022/10/02 03:04:50;;;;;;;2.42;2.10;;;;;;;10.53;99.65;96221.66;1766699;80;20953;-83
2022/10/02 03:07:16;;;;;;;3.20;2.27;;;;;;;10.58;99.54;96235.91;1764913;80;21383;-83
2022/10/02 03:09:46;;;;;;;3.85;2.15;;;;;;;10.56;99.26;96237.38;1761582;80;20979;-84
2022/10/02 03:12:40;;;;;;;2.67;2.10;;;;;;;10.55;99.23;96244.05;1760387;80;21051;-84
2022/10/02 03:15:28;;;;;;;3.83;2.40;;;;;;;10.51;98.92;96234.53;1764879;80;20979;-83
2022/10/02 03:18:05;;;;;;;3.08;2.17;;;;;;;10.48;98.94;96240.91;1761453;80;21377;-84
2022/10/02 03:21:15;;;;;;;2.92;2.25;;;;;;;10.45;98.80;96252.16;1749333;80;21008;-84
2022/10/02 03:24:01;;;;;;;3.12;2.10;;;;;;;10.44;98.85;96255.75;1749235;80;21423;-83
2022/10/02 03:26:40;;;;;;;3.12;1.85;;;;;;;10.41;99.02;96259.52;1779004;80;20956;-83
2022/10/02 03:29:11;;;;;;;2.67;1.70;;;;;;;10.44;99.24;96253.16;1764418;80;21285;-83
2022/10/02 03:31:37;;;;;;;1.67;1.47;;;;;;;10.47;99.03;96259.27;1765075;80;21053;-83
2022/10/02 03:34:03;;;;;;;2.40;1.90;;;;;;;10.47;98.94;96265.27;1760894;80;21053;-83
2022/10/02 03:36:29;;;;;;;2.98;2.00;;;;;;;10.49;98.92;96267.19;1760938;80;21318;-83
2022/10/02 03:38:58;;;;;;;1.70;1.60;;;;;;;10.52;98.82;96262.92;1739222;81;20941;-83
2022/10/02 03:41:23;;;;;;;2.58;1.75;;;;;;;10.58;98.68;96261.89;1763334;81;21030;-83
2022/10/02 03:43:49;;;;;;;2.67;1.80;;;;;;;10.58;98.51;96264.00;1762261;80;21400;-83
2022/10/02 03:46:15;;;;;;;3.62;2.35;;;;;;;10.57;98.18;96269.35;1762910;80;20952;-83
2022/10/02 03:48:41;;;;;;;4.30;1.80;;;;;;;10.57;98.21;96276.66;1761708;80;22087;-83
2022/10/02 03:51:07;;;;;;;3.62;2.17;;;;;;;10.57;98.28;96268.05;1766005;80;21033;-83
2022/10/02 03:53:33;;;;;;;66.90;50.60;;;;;;;10.59;97.99;96276.50;1749566;80;21215;-83
2022/10/02 03:56:34;;;;;;;8.13;5.70;;;;;;;10.61;97.75;96271.91;1771838;79;20999;-83
2022/10/02 03:59:00;;;;;;;8.15;3.80;;;;;;;10.61;97.44;96277.92;1769420;79;20959;-83
2022/10/02 04:01:35;;;;;;;9.80;4.60;;;;;;;10.62;97.67;96280.02;1794800;79;20963;-83
2022/10/02 04:04:14;;;;;;;2.77;2.10;;;;;;;10.60;97.47;96276.80;1766184;79;21031;-83
2022/10/02 04:06:46;;;;;;;47.08;26.30;;;;;;;10.60;97.48;96284.10;1756175;80;21008;-83
2022/10/02 04:09:32;;;;;;;11.57;6.42;;;;;;;10.59;97.49;96281.69;1775822;79;20933;-83
2022/10/02 04:12:03;;;;;;;4.85;2.83;;;;;;;10.60;97.71;96284.10;1772359;81;21075;-82
2022/10/02 04:14:52;;;;;;;2.67;1.80;;;;;;;10.62;97.46;96287.81;1763556;79;20940;-83
2022/10/02 04:17:29;;;;;;;2.70;1.72;;;;;;;10.64;97.56;96293.62;1776014;80;21004;-83
2022/10/02 04:19:59;;;;;;;2.27;2.05;;;;;;;10.63;97.18;96285.03;1774354;79;21030;-83
2022/10/02 04:22:36;;;;;;;3.37;1.72;;;;;;;10.64;97.11;96294.43;1772493;79;21094;-83
2022/10/02 04:39:24;;;;;;;3.60;1.50;;;;;;;11.16;94.32;96311.53;1775597;80;22902;-86
2022/10/02 04:42:19;;;;;;;2.62;1.60;;;;;;;11.10;94.02;96312.28;1784492;79;21037;-86
2022/10/02 04:44:57;;;;;;;2.40;1.45;;;;;;;11.00;94.11;96315.19;1741756;81;21348;-90
2022/10/02 04:47:34;;;;;;;2.65;1.47;;;;;;;10.94;94.61;96322.43;1749213;81;21372;-89
2022/10/02 04:50:11;;;;;;;1.35;1.25;;;;;;;10.91;94.72;96320.70;1754624;81;20987;-90
2022/10/02 04:52:57;;;;;;;2.62;1.52;;;;;;;10.87;94.55;96323.34;1743953;81;21368;-90
2022/10/02 04:55:50;;;;;;;5.75;1.60;;;;;;;10.85;94.83;96333.13;1779501;80;20955;-91
2022/10/02 04:58:39;;;;;;;3.02;2.10;;;;;;;10.81;94.38;96333.50;1752366;81;21368;-91
2022/10/02 05:01:35;;;;;;;2.37;1.50;;;;;;;10.76;94.63;96342.34;1759755;81;21352;-89
2022/10/02 05:04:35;;;;;;;2.10;1.90;;;;;;;10.75;94.84;96343.83;1755569;81;20963;-89
2022/10/02 05:07:38;;;;;;;3.17;1.50;;;;;;;10.71;94.83;96348.56;1746843;81;21073;-90
2022/10/02 05:10:45;;;;;;;3.77;1.62;;;;;;;10.72;95.01;96352.77;1758464;81;20979;-90
2022/10/02 05:13:52;;;;;;;1.90;1.50;;;;;;;10.73;95.08;96350.98;1746307;81;20994;-91
2022/10/02 05:16:45;;;;;;;1.67;1.40;;;;;;;10.75;95.06;96353.73;1740851;81;20983;-91
2022/10/02 05:20:08;;;;;;;2.80;1.70;;;;;;;10.75;95.17;96358.93;1751416;81;21015;-91
2022/10/02 05:22:56;;;;;;;3.83;1.62;;;;;;;10.77;94.93;96354.35;1744784;81;21034;-91
2022/10/02 05:25:45;;;;;;;2.65;1.37;;;;;;;10.74;94.76;96356.02;1785603;80;21380;-90
2022/10/02 05:28:52;;;;;;;1.80;1.45;;;;;;;10.76;94.62;96352.74;1750298;81;20970;-91
2022/10/02 05:31:47;;;;;;;4.42;1.20;;;;;;;10.77;94.51;96359.55;1736783;81;20994;-90
2022/10/02 05:34:42;;;;;;;1.50;1.20;;;;;;;10.77;94.53;96378.23;1745349;81;21026;-90
2022/10/02 05:37:32;;;;;;;2.02;1.60;;;;;;;10.79;94.83;96382.75;1743237;81;21073;-91
2022/10/02 05:40:24;;;;;;;2.08;1.37;;;;;;;10.81;94.87;96385.97;1728743;82;20980;-90
2022/10/02 05:43:28;;;;;;;6.60;3.85;;;;;;;10.79;94.83;96384.86;1740358;81;21014;-90
2022/10/02 05:45:57;;;;;;;3.98;1.80;;;;;;;10.78;95.08;96382.44;1756601;81;20959;-90
2022/10/02 05:48:30;;;;;;;2.52;1.87;;;;;;;10.75;94.52;96385.41;1753054;81;21058;-91
2022/10/02 05:51:11;;;;;;;6.12;4.95;;;;;;;10.74;94.48;96387.70;1750912;81;21009;-91
2022/10/02 05:53:48;;;;;;;13.65;6.58;;;;;;;10.75;94.44;96389.31;1746448;81;20978;-90
2022/10/02 05:56:22;;;;;;;6.37;2.95;;;;;;;10.78;94.42;96392.34;1737803;81;20977;-85
2022/10/02 05:58:55;;;;;;;3.50;2.00;;;;;;;10.80;94.45;96403.36;1750599;81;20910;-86
2022/10/02 06:01:31;;;;;;;8.70;4.05;;;;;;;10.82;94.60;96401.88;1743066;81;20958;-86
2022/10/02 06:04:02;;;;;;;3.98;2.30;;;;;;;10.86;94.48;96406.21;1749143;81;20983;-86
2022/10/02 06:06:42;;;;;;;3.75;1.70;;;;;;;10.88;94.50;96409.43;1742498;81;21014;-85
2022/10/02 06:09:18;;;;;;;7.05;3.12;;;;;;;10.88;93.94;96410.73;1758594;81;20993;-86
2022/10/02 06:12:06;;;;;;;4.03;1.70;;;;;;;10.91;94.09;96409.09;1757628;81;20926;-86
2022/10/02 06:14:47;;;;;;;4.80;2.05;;;;;;;10.95;94.21;96415.53;1755462;81;21047;-85
2022/10/02 06:17:29;;;;;;;5.92;4.05;;;;;;;10.95;94.20;96421.53;1746781;81;21037;-86
2022/10/02 06:20:15;;;;;;;4.58;1.90;;;;;;;10.99;93.91;96419.36;1743999;81;20974;-85
2022/10/02 06:22:47;;;;;;;7.05;4.78;;;;;;;11.03;94.25;96425.80;1751966;81;20988;-85
2022/10/02 06:25:43;;;;;;;5.05;2.37;;;;;;;11.08;94.31;96431.28;1751664;81;20958;-86
2022/10/02 06:28:41;;;;;;;8.98;4.75;;;;;;;11.12;93.81;96429.91;1739004;81;21328;-86
2022/10/02 06:31:23;;;;;;;3.65;2.10;;;;;;;11.11;93.25;96425.70;1751345;81;20997;-84
2022/10/02 06:33:52;;;;;;;4.67;1.62;;;;;;;11.08;93.17;96435.98;1739616;81;20915;-84
2022/10/02 06:36:44;;;;;;;3.12;1.70;;;;;;;11.11;93.80;96436.91;1725725;82;20960;-84
2022/10/02 06:39:49;;;;;;;5.00;1.95;;;;;;;11.15;93.42;96436.05;1729155;82;21012;-85
2022/10/02 06:42:27;;;;;;;13.00;4.62;;;;;;;11.18;93.05;96436.97;1719914;82;20962;-84
2022/10/02 06:45:26;;;;;;;11.05;4.40;;;;;;;11.25;93.07;96437.87;1724084;82;20967;-88
2022/10/02 06:48:04;;;;;;;5.42;2.70;;;;;;;11.27;92.67;96437.68;1745013;80;20928;-88
2022/10/02 06:50:56;;;;;;;10.50;4.22;;;;;;;11.23;92.88;96437.25;1764387;81;20931;-87
2022/10/02 06:54:01;;;;;;;3.50;1.60;;;;;;;11.27;92.70;96441.58;1758108;80;21034;-87
2022/10/02 06:56:35;;;;;;;6.37;2.40;;;;;;;11.29;92.55;96445.61;1679513;81;20952;-88
2022/10/02 06:59:22;;;;;;;3.83;2.12;;;;;;;11.32;92.37;96450.93;1724080;82;21046;-87
2022/10/02 07:02:16;;;;;;;2.90;1.87;;;;;;;11.37;92.64;96444.17;1762323;81;20960;-88
2022/10/02 07:05:13;;;;;;;5.05;3.17;;;;;;;11.39;92.70;96451.33;1729488;81;20931;-89
2022/10/02 07:07:50;;;;;;;3.60;2.05;;;;;;;11.43;92.48;96455.66;1752484;81;21050;-89
2022/10/02 07:10:32;;;;;;;3.55;1.92;;;;;;;11.47;92.41;96455.59;1733928;82;20952;-88
2022/10/02 07:13:45;;;;;;;3.35;1.72;;;;;;;11.53;92.40;96452.73;1730154;82;21027;-89
2022/10/02 07:16:52;;;;;;;4.45;2.58;;;;;;;11.56;91.97;96449.29;1722741;81;21070;-88
2022/10/02 07:19:48;;;;;;;3.58;2.00;;;;;;;11.59;91.50;96452.81;1755220;81;21357;-89
2022/10/02 07:22:48;;;;;;;17.20;8.50;;;;;;;11.62;91.60;96451.63;1752265;81;20980;-88
2022/10/02 07:25:34;;;;;;;4.92;3.17;;;;;;;11.64;91.62;96453.05;1741824;81;20986;-89
2022/10/02 07:28:14;;;;;;;4.72;2.90;;;;;;;11.67;91.82;96455.77;1747577;81;21385;-89
2022/10/02 07:31:03;;;;;;;4.53;2.50;;;;;;;11.72;91.55;96461.25;1746734;82;20963;-88
2022/10/02 07:33:58;;;;;;;4.20;1.90;;;;;;;11.77;91.99;96461.98;1748787;81;21369;-89
2022/10/02 07:36:33;;;;;;;5.08;2.30;;;;;;;11.76;90.94;96467.68;1732684;81;20984;-88
2022/10/02 07:39:07;;;;;;;7.37;4.67;;;;;;;11.74;91.01;96459.26;1762208;80;21043;-89
2022/10/02 07:41:39;;;;;;;3.12;2.27;;;;;;;11.76;90.66;96468.18;1766661;81;20967;-88
2022/10/02 07:44:20;;;;;;;6.12;2.75;;;;;;;11.76;90.67;96469.48;1766627;81;20956;-88
2022/10/02 07:47:27;;;;;;;5.55;3.10;;;;;;;11.77;90.16;96464.09;1763848;81;21058;-89
2022/10/02 07:49:57;;;;;;;10.85;4.35;;;;;;;11.79;90.21;96462.63;1769041;80;20916;-89
2022/10/02 07:52:34;;;;;;;3.95;2.35;;;;;;;11.78;90.13;96469.59;1775919;81;20987;-88
2022/10/02 07:55:19;;;;;;;6.47;3.45;;;;;;;11.78;89.97;96470.91;1755967;81;20983;-89
2022/10/02 07:58:14;;;;;;;8.13;3.30;;;;;;;11.77;90.23;96459.38;1775840;81;20971;-88
2022/10/02 08:00:51;;;;;;;10.30;5.78;;;;;;;11.77;89.81;96459.38;1749768;81;20962;-88
2022/10/02 08:03:21;;;;;;;44.63;23.80;;;;;;;11.79;90.22;96462.13;1775570;81;20990;-88
2022/10/02 08:05:50;;;;;;;23.45;13.72;;;;;;;11.82;89.67;96463.55;1776340;81;20958;-88
2022/10/02 08:08:42;;;;;;;7.90;5.70;;;;;;;11.82;89.22;96465.66;1775429;81;21026;-89
2022/10/02 08:11:31;;;;;;;7.37;3.87;;;;;;;11.83;89.17;96460.75;1776170;81;20927;-87
2022/10/02 08:14:18;;;;;;;12.05;5.83;;;;;;;11.87;89.32;96458.08;1775592;79;20947;-88
2022/10/02 08:16:48;;;;;;;4.53;3.30;;;;;;;11.91;89.30;96455.43;1754515;81;21018;-87
2022/10/02 08:19:31;;;;;;;5.80;4.03;;;;;;;11.93;88.74;96457.84;1771381;81;20998;-88
2022/10/02 08:22:02;;;;;;;5.33;2.95;;;;;;;11.95;88.51;96455.36;1775808;81;20959;-88
2022/10/02 08:24:41;;;;;;;4.47;2.95;;;;;;;11.99;88.32;96461.79;1776265;81;21427;-87
2022/10/02 08:27:18;;;;;;;5.92;2.92;;;;;;;11.96;87.83;96453.06;1763799;81;21006;-88
2022/10/02 08:30:03;;;;;;;3.98;2.27;;;;;;;11.96;88.40;96452.25;1760933;81;21058;-88
2022/10/02 08:32:35;;;;;;;12.05;8.18;;;;;;;11.98;88.63;96458.88;1773833;81;20943;-87
2022/10/02 08:35:13;;;;;;;6.62;5.10;;;;;;;12.05;89.17;96455.05;1774020;80;21403;-88
2022/10/02 08:38:32;;;;;;;10.60;5.83;;;;;;;12.12;88.67;96458.48;1754788;81;21031;-87
2022/10/02 08:41:26;;;;;;;22.52;14.38;;;;;;;12.19;89.24;96450.21;1751455;81;20968;-86
2022/10/02 08:44:32;;;;;;;7.10;4.28;;;;;;;12.27;89.70;96450.08;1719756;82;21432;-84
2022/10/02 08:47:27;;;;;;;4.72;3.37;;;;;;;12.38;88.68;96444.05;1707330;82;21003;-85
2022/10/02 08:50:20;;;;;;;5.42;2.77;;;;;;;12.48;88.29;96450.50;1752388;81;20932;-85
2022/10/02 08:53:07;;;;;;;4.50;2.62;;;;;;;12.61;87.64;96449.78;1739322;82;21331;-85
2022/10/02 08:56:02;;;;;;;3.72;2.10;;;;;;;12.72;86.85;96441.92;1739659;82;21062;-85
2022/10/02 08:59:03;;;;;;;3.65;2.10;;;;;;;12.75;86.05;96440.23;1716934;82;21007;-85
2022/10/02 09:02:03;;;;;;;12.35;6.65;;;;;;;12.74;85.00;96438.12;1740055;82;20971;-85
2022/10/02 09:05:19;;;;;;;8.63;4.67;;;;;;;12.70;84.77;96427.78;1696549;82;20999;-85
2022/10/02 09:08:25;;;;;;;3.72;1.87;;;;;;;12.77;85.30;96433.82;1743983;81;21421;-85
2022/10/02 09:11:14;;;;;;;5.97;2.65;;;;;;;12.75;83.90;96420.17;1681472;83;21123;-85
2022/10/02 09:14:20;;;;;;;4.40;1.52;;;;;;;12.82;83.58;96440.55;1737796;81;21038;-84
2022/10/02 09:17:15;;;;;;;9.33;3.55;;;;;;;12.86;82.87;96433.17;1696999;83;21459;-84
2022/10/02 09:20:13;;;;;;;4.35;2.20;;;;;;;12.92;82.57;96421.95;1738965;81;21474;-85
2022/10/02 09:22:58;;;;;;;6.50;2.58;;;;;;;12.93;82.85;96425.66;1742190;81;20983;-85
2022/10/02 09:25:41;;;;;;;17.10;5.65;;;;;;;12.97;82.41;96436.50;1742393;81;20991;-85
2022/10/02 09:28:29;;;;;;;4.92;3.30;;;;;;;13.07;82.61;96433.04;1742682;81;21049;-85
2022/10/02 09:31:40;;;;;;;4.05;2.22;;;;;;;13.25;82.00;96419.97;1733167;81;20959;-85
2022/10/02 09:34:35;;;;;;;3.72;2.10;;;;;;;13.36;79.22;96431.15;1740586;81;21365;-86
2022/10/02 09:37:42;;;;;;;3.52;1.75;;;;;;;13.43;79.67;96425.43;1742133;81;20986;-85
2022/10/02 09:40:37;;;;;;;4.30;2.37;;;;;;;13.49;79.39;96423.32;1732590;82;21070;-85
2022/10/02 09:43:30;;;;;;;4.10;1.70;;;;;;;13.58;78.89;96421.34;1721558;81;20956;-86
2022/10/02 09:46:46;;;;;;;6.03;2.15;;;;;;;13.55;78.60;96410.80;1747566;81;21011;-86
2022/10/02 09:49:48;;;;;;;3.72;2.12;;;;;;;13.53;78.45;96413.31;1742136;81;22075;-84
2022/10/02 09:52:31;;;;;;;5.22;2.15;;;;;;;13.50;79.18;96417.09;1738899;81;20987;-85
2022/10/02 09:55:28;;;;;;;4.35;2.10;;;;;;;13.56;79.32;96415.52;1722770;81;20935;-84
2022/10/02 09:58:05;;;;;;;7.83;3.25;;;;;;;13.63;78.46;96418.92;1755610;81;20948;-85
2022/10/02 10:00:57;;;;;;;3.58;2.52;;;;;;;13.66;78.83;96411.99;1742148;81;21047;-85
2022/10/02 10:04:07;;;;;;;3.52;2.22;;;;;;;13.67;78.71;96413.13;1719503;82;20959;-85
2022/10/02 10:06:51;;;;;;;3.62;1.75;;;;;;;13.69;78.39;96402.48;1742277;81;20979;-85
2022/10/02 10:10:05;;;;;;;4.40;2.22;;;;;;;13.76;78.98;96406.69;1742670;81;21011;-85
2022/10/02 10:13:16;;;;;;;4.37;1.67;;;;;;;13.86;78.22;96407.60;1742588;81;21010;-85
2022/10/02 10:16:10;;;;;;;8.88;4.72;;;;;;;13.89;76.26;96411.11;1733059;81;21373;-85
2022/10/02 10:19:15;;;;;;;4.53;2.40;;;;;;;14.02;78.13;96407.70;1742259;81;20935;-85
2022/10/02 10:22:11;;;;;;;3.27;2.15;;;;;;;14.19;79.20;96408.08;1740278;81;21086;-85
2022/10/02 10:25:09;;;;;;;6.10;3.45;;;;;;;14.25;77.66;96409.36;1694565;84;21002;-85
2022/10/02 10:28:17;;;;;;;4.80;2.20;;;;;;;14.28;77.96;96410.77;1734379;81;20952;-86
2022/10/02 10:31:13;;;;;;;4.22;2.00;;;;;;;14.32;78.06;96411.98;1747597;81;20997;-85
2022/10/02 10:34:04;;;;;;;3.25;1.50;;;;;;;14.26;76.72;96408.36;1740543;81;21003;-85
2022/10/02 10:40:23;;;;;;;4.30;1.92;;;;;;;14.27;76.86;96400.81;1729455;81;21082;-85
2022/10/02 10:43:06;;;;;;;5.40;1.60;;;;;;;14.49;77.82;96401.92;1766843;81;20947;-85
2022/10/02 10:46:09;;;;;;;4.55;1.62;;;;;;;14.55;77.33;96391.94;1772241;81;20959;-85
2022/10/02 10:49:16;;;;;;;3.35;1.62;;;;;;;14.50;76.66;96390.45;1794909;80;20984;-86
2022/10/02 10:52:24;;;;;;;2.90;1.80;;;;;;;14.40;75.77;96391.64;1796706;80;21003;-85
2022/10/02 10:55:19;;;;;;;3.92;1.80;;;;;;;14.31;76.21;96392.85;1796220;80;21011;-85
2022/10/02 10:58:08;;;;;;;4.47;1.80;;;;;;;14.30;77.01;96395.17;1739069;82;21001;-85
2022/10/02 11:01:02;;;;;;;4.75;1.60;;;;;;;14.33;76.91;96392.67;1759479;80;21047;-85
2022/10/02 11:03:48;;;;;;;2.20;1.32;;;;;;;14.28;76.60;96399.80;1741846;81;20997;-85
2022/10/02 11:06:35;;;;;;;3.20;1.40;;;;;;;14.26;76.08;96387.45;1766909;81;21038;-85
2022/10/02 11:09:39;;;;;;;3.33;1.47;;;;;;;14.23;76.27;96385.25;1741845;81;21073;-85
2022/10/02 11:12:40;;;;;;;3.22;1.65;;;;;;;14.24;75.99;96384.74;1767866;81;20967;-85
2022/10/02 11:15:48;;;;;;;3.25;1.57;;;;;;;14.25;76.96;96383.23;1748479;81;21018;-85
2022/10/02 11:18:30;;;;;;;2.15;1.30;;;;;;;14.31;76.68;96382.40;1767435;81;21350;-83
2022/10/02 11:21:31;;;;;;;4.20;1.90;;;;;;;14.27;76.30;96385.12;1767905;81;20947;-85
2022/10/02 11:24:32;;;;;;;4.92;1.47;;;;;;;14.19;76.36;96375.41;1777748;80;21295;-85
2022/10/02 11:27:28;;;;;;;2.75;1.82;;;;;;;14.09;76.48;96379.73;1789858;80;21007;-85
2022/10/02 11:30:19;;;;;;;3.67;1.47;;;;;;;13.94;75.93;96389.09;1770616;79;20996;-85
2022/10/02 11:33:09;;;;;;;2.65;1.20;;;;;;;13.79;76.35;96382.77;1798292;79;20939;-85
2022/10/02 11:35:58;;;;;;;4.80;1.42;;;;;;;13.75;77.09;96387.30;1765046;81;21011;-85
2022/10/02 11:38:55;;;;;;;2.75;1.25;;;;;;;13.80;76.56;96383.07;1757740;81;21086;-85
2022/10/02 11:41:47;;;;;;;6.17;1.98;;;;;;;13.87;77.64;96383.59;1734127;82;21002;-84
2022/10/02 11:44:39;;;;;;;3.22;1.70;;;;;;;14.02;77.59;96378.96;1749322;81;21399;-85
2022/10/02 11:47:20;;;;;;;3.35;1.47;;;;;;;14.05;77.28;96371.52;1724830;81;21093;-85
2022/10/02 11:50:11;;;;;;;4.35;1.50;;;;;;;14.03;76.67;96375.34;1715442;83;20948;-85
2022/10/02 11:53:16;;;;;;;2.15;1.45;;;;;;;14.01;77.51;96379.97;1760951;81;20928;-85
2022/10/02 11:56:31;;;;;;;2.77;1.45;;;;;;;13.91;77.91;96385.59;1763368;81;21376;-85
2022/10/02 11:59:36;;;;;;;4.65;1.65;;;;;;;13.81;78.10;96378.15;1721843;82;20986;-85
2022/10/02 12:02:14;;;;;;;4.47;1.60;;;;;;;13.69;78.11;96372.45;1729981;83;20995;-85
2022/10/02 12:05:08;;;;;;;3.40;1.90;;;;;;;13.64;79.27;96364.40;1731529;83;21364;-85
2022/10/02 12:07:48;;;;;;;4.22;2.00;;;;;;;13.64;80.25;96367.00;1718805;82;21057;-86
2022/10/02 12:10:20;;;;;;;6.03;1.85;;;;;;;13.71;81.05;96364.71;1733302;83;21023;-86
2022/10/02 12:13:16;;;;;;;2.10;1.60;;;;;;;13.76;80.70;96370.63;1764220;81;21014;-86
2022/10/02 12:16:02;;;;;;;4.12;1.40;;;;;;;13.89;80.14;96369.83;1721262;82;21095;-86
2022/10/02 12:19:08;;;;;;;3.45;1.90;;;;;;;14.19;79.82;96365.77;1703603;83;20999;-86
2022/10/02 12:28:41;;;;;;;3.37;1.77;;;;;;;14.34;76.30;96372.06;1761461;81;21337;-85
2022/10/02 12:31:15;;;;;;;4.65;1.72;;;;;;;14.32;77.56;96359.70;1748457;81;21344;-85
2022/10/02 12:34:23;;;;;;;5.20;2.45;;;;;;;14.31;76.73;96360.69;1739946;82;20992;-85
2022/10/02 12:36:58;;;;;;;2.95;1.40;;;;;;;14.23;77.09;96359.11;1734711;83;21370;-85
2022/10/02 12:39:39;;;;;;;3.58;1.80;;;;;;;14.17;76.43;96358.64;1754864;81;21007;-85
2022/10/02 12:42:25;;;;;;;4.08;1.98;;;;;;;14.13;76.53;96356.91;1793229;80;21023;-86
2022/10/02 12:45:21;;;;;;;6.42;3.30;;;;;;;14.23;77.00;96346.05;1758855;80;21001;-85
2022/10/02 12:48:08;;;;;;;4.87;2.70;;;;;;;14.29;77.37;96347.02;1747614;81;20916;-86
2022/10/02 12:51:04;;;;;;;4.00;2.12;;;;;;;14.27;78.21;96343.31;1756651;81;20961;-85
2022/10/02 12:54:13;;;;;;;3.00;1.72;;;;;;;14.24;77.20;96345.54;1738111;81;21424;-85
2022/10/02 12:57:05;;;;;;;3.17;1.42;;;;;;;14.11;76.23;96332.00;1754739;81;21447;-84
2022/10/02 12:59:40;;;;;;;4.00;1.70;;;;;;;13.99;77.58;96325.78;1764393;81;20976;-85
2022/10/02 13:02:40;;;;;;;3.62;1.52;;;;;;;13.87;77.85;96338.69;1764353;81;20991;-85
2022/10/02 13:05:27;;;;;;;3.72;1.85;;;;;;;13.78;77.83;96334.67;1757031;81;21090;-85
2022/10/02 13:08:22;;;;;;;5.42;1.90;;;;;;;13.69;78.43;96328.87;1776752;80;21294;-85
2022/10/02 13:11:29;;;;;;;4.10;1.62;;;;;;;13.79;79.26;96321.91;1753347;80;21333;-86
2022/10/02 13:14:19;;;;;;;2.75;1.65;;;;;;;13.90;79.79;96313.46;1768980;81;20932;-85
2022/10/02 13:16:59;;;;;;;4.08;1.85;;;;;;;14.09;80.58;96315.73;1763831;81;20970;-85
2022/10/02 13:19:56;;;;;;;2.83;1.25;;;;;;;14.22;78.96;96316.20;1716471;82;20990;-86
2022/10/02 13:22:36;;;;;;;4.35;2.15;;;;;;;14.37;77.18;96309.72;1755164;81;21031;-85
2022/10/02 13:25:33;;;;;;;2.45;1.10;;;;;;;14.38;76.27;96313.13;1758271;81;21066;-85